ADDS METAR Data INFO
IDs: Format: Raw Decoded Include TAF

Data at: 1118 UTC 21 Feb 2018

PAPB 201453Z AUTO 15011KT 10SM OVC050 03/01 A3041 RMK AO2 SLP285 T00330011 50003 TSNO $
PAPB 201353Z AUTO 17010KT 9SM OVC050 03/01 A3042 RMK AO2 SLP289 T00330011 TSNO $
PAPB 201253Z AUTO 16013KT 10SM OVC042 03/01 A3040 RMK AO2 SLP283 T00330011 TSNO $
PAPB 201153Z AUTO 18008KT 8SM BKN038 01/M03 A3040 RMK AO2 SLP281 70002 T00061028 10039 20000 TSNO $
PAPB 201053Z AUTO 22009KT 10SM CLR 03/M01 A3037 RMK AO2 SLP271 T00281011 TSNO $
PAPB 200953Z AUTO 22012KT 10SM BKN044 03/M01 A3040 RMK AO2 SLP281 T00331011 TSNO $
PAPB 200853Z AUTO 22016KT 10SM OVC040 04/M02 A3039 RMK AO2 SLP278 T00391017 400560033 53039 TSNO $
PAPB 200753Z AUTO 22018KT 10SM OVC037 04/M02 A3035 RMK AO2 PK WND 21026/0734 SLP266 T00391017 TSNO $
PAPB 200653Z AUTO 23015KT 10SM OVC038 03/M02 A3030 RMK AO2 SLP248 T00331022 TSNO $
PAPB 200553Z AUTO 23016KT 8SM OVC038 03/M01 A3027 RMK AO2 SLP239 T00331011 10056 20033 51038 TSNO $
PAPB 200453Z AUTO 22016KT 9SM OVC037 04/00 A3025 RMK AO2 PK WND 23026/0402 SLP230 T00390000 TSNO $
PAPB 200410Z AUTO 23020KT 8SM BKN031 04/00 A3022 RMK AO2 PK WND 23026/0402 T00390000 TSNO $
PAPB 200353Z AUTO 23021G24KT 8SM BKN029 04/01 A3020 RMK AO2 SLP215 T00390011 TSNO $
PAPB 200335Z AUTO 23018KT 7SM FEW022 BKN029 OVC036 04/01 A3019 RMK AO2 T00440011 TSNO $
PAPB 200253Z AUTO 21015KT 6SM HZ SCT025 OVC032 05/02 A3016 RMK AO2 SLP201 T00500022 53043 TSNO $
PAPB 200203Z AUTO 22015KT 8SM FEW027 05/02 A3012 RMK AO2 T00500017 TSNO $
PAPB 200153Z AUTO 22016KT 8SM BKN025 05/02 A3011 RMK AO2 SLP185 T00500017 TSNO $
PAPB 200117Z AUTO 22019KT 7SM OVC027 05/02 A3009 RMK AO2 T00500022 TSNO $
PAPB 200053Z AUTO 21019KT 7SM OVC031 05/03 A3007 RMK AO2 PK WND 23026/0003 SLP170 T00500028 TSNO $
PAPB 200019Z AUTO 22017KT 8SM BKN030 BKN039 06/02 A3004 RMK AO2 PK WND 23026/0003 T00560022 TSNO $
PAPB 192353Z AUTO 22020KT 8SM OVC026 06/02 A3003 RMK AO2 PK WND 22027/2257 SLP158 T00560022 10056 20050 TSNO $